Time;durP1;ratioP1;P1;durP2;ratioP2;P2;SDS_P1;SDS_P2;PMS_P1;PMS_P2;Temp;Humidity;BMP_temperature;BMP_pressure;BME280_temperature;BME280_humidity;BME280_pressure;Samples;Min_cycle;Max_cycle;Signal;HPM_P1;HPM_P2
2022/12/04 00:02:04;;;;;;;28.70;21.42;;;;;;;7.42;64.44;102020.19;4776195;29;119974;-78
2022/12/04 00:04:29;;;;;;;25.50;20.60;;;;;;;7.45;64.80;102013.94;4777153;29;119423;-79
2022/12/04 00:06:55;;;;;;;29.35;21.73;;;;;;;7.46;64.72;102023.69;4761062;29;120438;-78
2022/12/04 00:09:22;;;;;;;28.13;22.20;;;;;;;7.46;64.80;102013.53;4762214;29;120289;-79
2022/12/04 00:11:47;;;;;;;28.50;21.83;;;;;;;7.41;64.15;102005.75;4760103;29;121291;-78
2022/12/04 00:14:13;;;;;;;28.73;22.45;;;;;;;7.49;64.32;102011.97;4744394;29;122813;-79
2022/12/04 00:16:39;;;;;;;29.77;22.98;;;;;;;7.52;64.13;102011.16;4764589;29;120113;-78
2022/12/04 00:19:04;;;;;;;30.88;22.95;;;;;;;7.49;64.26;102003.78;4759350;29;120584;-78
2022/12/04 00:21:31;;;;;;;28.02;22.05;;;;;;;7.53;64.36;102009.97;4772982;29;120680;-78
2022/12/04 00:23:56;;;;;;;31.73;23.17;;;;;;;7.51;64.19;102015.84;4758525;29;120097;-78
2022/12/04 00:26:25;;;;;;;35.70;27.30;;;;;;;7.51;63.64;102013.13;4745166;29;119868;-79
2022/12/04 00:28:53;;;;;;;38.65;28.38;;;;;;;7.49;63.84;102012.72;4780588;29;119730;-78
2022/12/04 00:31:21;;;;;;;42.90;28.92;;;;;;;7.45;64.06;102011.97;4776566;29;122198;-80
2022/12/04 00:33:47;;;;;;;43.13;29.40;;;;;;;7.39;64.47;102003.44;4758128;29;119243;-78
2022/12/04 00:36:16;;;;;;;41.28;29.13;;;;;;;7.42;64.02;102012.00;4776737;29;119493;-79
2022/12/04 00:38:43;;;;;;;42.65;28.60;;;;;;;7.34;63.85;102009.31;4756493;29;120400;-79
2022/12/04 00:41:11;;;;;;;43.78;30.65;;;;;;;7.28;63.13;102013.59;4759341;29;119899;-79
2022/12/04 00:43:36;;;;;;;42.33;30.08;;;;;;;7.23;63.59;102003.09;4777892;29;119377;-79
2022/12/04 00:46:02;;;;;;;42.63;29.35;;;;;;;7.21;63.51;101996.47;4763669;29;121642;-79
2022/12/04 00:48:28;;;;;;;41.42;29.17;;;;;;;7.23;63.97;102008.53;4737601;29;119975;-79
2022/12/04 00:50:54;;;;;;;43.47;30.35;;;;;;;7.23;63.77;102007.75;4794355;29;119156;-78
2022/12/04 00:53:20;;;;;;;42.45;28.98;;;;;;;7.22;64.02;102009.72;4757506;29;120710;-78
2022/12/04 00:55:46;;;;;;;39.97;28.55;;;;;;;7.13;64.33;101994.94;4775680;29;119276;-78
2022/12/04 00:58:12;;;;;;;40.63;29.00;;;;;;;7.21;64.04;102013.63;4779609;29;119195;-78
2022/12/04 01:00:40;;;;;;;41.20;29.15;;;;;;;7.24;63.99;102012.81;4754505;29;120321;-79
2022/12/04 01:03:07;;;;;;;39.22;28.70;;;;;;;7.26;64.36;102015.94;4777776;29;119448;-78
2022/12/04 01:05:41;;;;;;;38.58;27.98;;;;;;;7.27;64.01;102014.75;4762004;29;119596;-78
2022/12/04 01:08:08;;;;;;;38.45;28.30;;;;;;;7.26;63.63;102005.03;4779100;29;119428;-79
2022/12/04 01:10:34;;;;;;;38.72;26.80;;;;;;;7.21;63.46;101999.97;4779247;29;119756;-78
2022/12/04 01:12:59;;;;;;;37.20;27.02;;;;;;;7.14;63.08;101996.50;4765444;29;119677;-78
2022/12/04 01:15:25;;;;;;;37.63;26.77;;;;;;;7.17;62.72;102009.34;4783525;29;119547;-79
2022/12/04 01:17:51;;;;;;;38.95;27.15;;;;;;;7.21;63.06;102013.63;4779637;29;119511;-78
2022/12/04 01:20:16;;;;;;;37.28;26.98;;;;;;;7.14;62.93;102007.41;4771696;29;119254;-78
2022/12/04 01:22:42;;;;;;;37.90;26.92;;;;;;;7.06;62.46;101995.72;4758879;29;119743;-78
2022/12/04 01:25:08;;;;;;;40.80;26.98;;;;;;;7.11;63.13;102011.72;4770294;29;119656;-78
2022/12/04 01:27:34;;;;;;;36.83;27.30;;;;;;;7.11;62.77;102022.63;4778307;29;120102;-78
2022/12/04 01:30:00;;;;;;;40.38;28.13;;;;;;;7.14;62.66;102031.97;4779298;29;119911;-79
2022/12/04 01:32:25;;;;;;;39.25;27.15;;;;;;;7.10;62.75;102015.63;4746316;29;120105;-78
2022/12/04 01:34:51;;;;;;;38.20;27.65;;;;;;;7.04;62.53;102004.28;4780956;29;120735;-78
2022/12/04 01:37:17;;;;;;;41.28;28.30;;;;;;;7.12;63.00;102018.72;4778485;29;119220;-79
2022/12/04 01:39:42;;;;;;;36.22;27.23;;;;;;;7.14;62.87;102016.38;4777461;29;119630;-78
2022/12/04 01:42:14;;;;;;;37.63;27.88;;;;;;;7.14;62.52;102021.06;4775037;29;120106;-79
2022/12/04 01:45:18;;;;;;;38.85;27.60;;;;;;;7.17;62.16;102012.84;4762027;29;119744;-78
2022/12/04 01:47:45;;;;;;;41.27;28.70;;;;;;;7.13;62.48;102022.22;4778851;29;121422;-79
2022/12/04 01:50:10;;;;;;;40.25;28.90;;;;;;;7.16;61.93;102019.50;4758367;29;122691;-78
2022/12/04 01:52:36;;;;;;;45.30;30.58;;;;;;;7.13;62.71;102016.78;4767582;29;119288;-79
2022/12/04 01:55:02;;;;;;;42.03;30.13;;;;;;;7.14;62.82;102018.31;4763108;29;119729;-78
2022/12/04 01:57:31;;;;;;;40.17;28.52;;;;;;;7.17;62.71;102025.72;4781732;29;128722;-79
2022/12/04 02:00:15;;;;;;;41.85;29.27;;;;;;;7.15;62.64;102025.34;4773597;29;120244;-78
2022/12/04 02:02:45;;;;;;;;;;;;;;;7.16;61.87;102024.16;4762556;29;119707;-78
2022/12/04 02:05:13;;;;;;;38.85;28.23;;;;;;;7.19;62.17;102015.19;4778331;29;119701;-79
2022/12/04 02:07:40;;;;;;;40.95;28.75;;;;;;;7.18;62.22;102013.63;4776067;29;120648;-79
2022/12/04 02:10:08;;;;;;;39.03;28.40;;;;;;;7.17;62.32;102010.13;4760658;29;119625;-79
2022/12/04 02:12:54;;;;;;;44.00;29.13;;;;;;;7.15;62.20;102006.25;4762999;29;119428;-78
2022/12/04 02:15:35;;;;;;;40.15;29.25;;;;;;;7.18;62.06;102014.41;4777748;29;119340;-78
2022/12/04 02:18:28;;;;;;;41.58;28.98;;;;;;;7.21;61.90;102019.06;4764489;29;120392;-79
2022/12/04 02:20:56;;;;;;;38.88;28.90;;;;;;;7.22;61.91;102019.84;4780899;29;120206;-78
2022/12/04 02:23:44;;;;;;;43.00;30.02;;;;;;;7.23;62.01;102016.72;4772288;29;119516;-78
2022/12/04 02:26:28;;;;;;;43.30;30.73;;;;;;;7.21;62.14;102019.06;4776079;29;119205;-78
2022/12/04 02:29:06;;;;;;;43.38;30.05;;;;;;;7.20;62.18;102020.25;4760635;29;122794;-79
2022/12/04 02:32:29;;;;;;;42.63;29.85;;;;;;;7.18;62.44;102013.63;4765728;29;119655;-78
2022/12/04 02:35:03;;;;;;;38.53;27.98;;;;;;;7.17;62.08;102015.59;4706354;29;120476;-78
2022/12/04 02:37:28;;;;;;;40.88;29.55;;;;;;;7.17;61.91;102021.03;4705309;29;121033;-78
2022/12/04 02:40:03;;;;;;;39.85;29.48;;;;;;;7.14;62.65;102012.88;4721208;29;119818;-78
2022/12/04 02:42:37;;;;;;;39.17;28.83;;;;;;;7.22;62.76;102031.53;4709164;29;119883;-78
2022/12/04 02:45:13;;;;;;;39.13;28.45;;;;;;;7.21;62.76;102005.44;4720341;29;120031;-78
2022/12/04 02:47:41;;;;;;;39.95;28.38;;;;;;;7.24;62.33;102012.81;4702837;29;119626;-79
2022/12/04 02:50:20;;;;;;;39.42;28.70;;;;;;;7.24;62.00;102001.13;4724528;29;121597;-79
2022/12/04 02:52:52;;;;;;;38.05;27.67;;;;;;;7.25;61.96;102002.69;4712739;29;119929;-79
2022/12/04 02:55:28;;;;;;;39.40;28.85;;;;;;;7.31;62.37;102001.09;4693450;29;119773;-78
2022/12/04 02:58:03;;;;;;;38.53;28.15;;;;;;;7.31;61.72;101996.41;4724396;29;120402;-79
2022/12/04 03:00:31;;;;;;;35.67;26.80;;;;;;;7.32;61.71;101997.97;4679932;29;119789;-78
2022/12/04 03:03:04;;;;;;;38.42;27.52;;;;;;;7.30;62.07;101999.53;4720991;29;120049;-78
2022/12/04 03:05:54;;;;;;;36.63;26.98;;;;;;;7.36;62.11;101997.97;4734507;29;119420;-78
2022/12/04 03:08:25;;;;;;;37.15;27.55;;;;;;;7.36;61.46;102003.44;4760128;29;120024;-78
2022/12/04 03:10:56;;;;;;;35.90;26.50;;;;;;;7.35;61.85;102005.41;4776853;29;120294;-79
2022/12/04 03:13:34;;;;;;;38.83;27.45;;;;;;;7.38;62.23;102009.28;4760833;29;119308;-78
2022/12/04 03:16:08;;;;;;;35.92;25.38;;;;;;;7.38;61.81;102012.00;4747650;29;119362;-79
2022/12/04 03:18:59;;;;;;;37.75;28.08;;;;;;;7.39;61.64;102014.34;4738223;29;120339;-79
2022/12/04 03:21:29;;;;;;;36.05;26.75;;;;;;;7.38;62.06;102007.34;4738652;29;119602;-79
2022/12/04 03:24:23;;;;;;;32.80;25.70;;;;;;;7.39;61.84;102008.88;4760503;29;120272;-78
2022/12/04 03:26:59;;;;;;;34.17;25.65;;;;;;;7.37;61.72;102005.78;4760237;29;121003;-78
2022/12/04 03:29:42;;;;;;;35.22;26.10;;;;;;;7.37;61.24;102005.00;4778637;29;119538;-78
2022/12/04 03:32:14;;;;;;;34.13;25.25;;;;;;;7.38;61.62;102001.88;4766617;29;120301;-79
2022/12/04 03:35:19;;;;;;;35.92;25.73;;;;;;;7.37;61.58;101994.84;4758308;29;120543;-78
2022/12/04 03:38:01;;;;;;;34.17;25.63;;;;;;;7.42;61.61;101999.13;4753856;29;119707;-78
2022/12/04 03:40:38;;;;;;;33.65;25.13;;;;;;;7.44;61.19;101998.72;4751015;29;120122;-79
2022/12/04 03:43:32;;;;;;;34.10;25.90;;;;;;;7.44;61.74;102004.19;4753953;29;120009;-78
2022/12/04 03:46:07;;;;;;;32.95;24.23;;;;;;;7.46;61.09;102008.06;4769763;29;120214;-78
2022/12/04 03:48:50;;;;;;;35.38;26.67;;;;;;;7.39;61.48;101997.19;4746834;29;127066;-78
2022/12/04 03:51:21;;;;;;;34.40;26.60;;;;;;;7.41;61.76;101994.84;4754583;29;119977;-78
2022/12/04 03:53:58;;;;;;;33.25;25.27;;;;;;;7.50;61.33;102011.56;4778657;29;119767;-79
2022/12/04 03:56:28;;;;;;;36.17;25.92;;;;;;;7.52;61.45;102011.16;4753206;29;120032;-78
2022/12/04 03:59:02;;;;;;;37.92;27.27;;;;;;;7.53;61.57;102012.72;4759493;29;119482;-78
2022/12/04 04:01:33;;;;;;;;;;;;;;;7.54;61.55;102008.81;4771073;29;119540;-79
2022/12/04 04:04:02;;;;;;;38.15;27.38;;;;;;;7.54;61.34;102017.00;4749780;29;119617;-79
2022/12/04 04:06:33;;;;;;;37.42;26.65;;;;;;;7.50;60.90;102010.78;4758873;29;119736;-79
2022/12/04 04:09:03;;;;;;;34.60;26.25;;;;;;;7.48;61.12;102015.88;4773691;29;119560;-79
2022/12/04 04:11:36;;;;;;;36.13;26.52;;;;;;;7.48;61.54;102015.88;4740840;29;119981;-79
2022/12/04 04:25:17;;;;;;;;;;;;;;;7.50;61.42;102025.22;4777509;29;120110;-79
2022/12/04 04:27:54;;;;;;;36.40;26.85;;;;;;;7.50;61.15;102010.78;4770382;29;119822;-78
2022/12/04 04:30:19;;;;;;;35.35;26.30;;;;;;;7.50;61.59;102025.22;4768798;29;119886;-78
2022/12/04 04:32:51;;;;;;;37.70;27.17;;;;;;;7.50;61.49;102025.22;4760464;29;120767;-78
2022/12/04 04:35:21;;;;;;;35.13;26.15;;;;;;;7.51;61.07;102012.34;4773517;29;119543;-78
2022/12/04 04:38:17;;;;;;;34.60;25.23;;;;;;;7.45;61.24;102011.97;4737971;29;119249;-78
2022/12/04 04:41:16;;;;;;;33.95;25.63;;;;;;;7.43;61.28;102013.53;4747509;29;120422;-79
2022/12/04 04:44:05;;;;;;;34.05;26.30;;;;;;;7.39;61.38;102008.88;4748797;29;119513;-78
2022/12/04 04:46:36;;;;;;;35.25;26.10;;;;;;;7.43;61.43;102008.88;4742455;29;120118;-79
2022/12/04 04:49:06;;;;;;;35.97;26.38;;;;;;;7.35;61.14;102008.13;4771184;29;119313;-79
2022/12/04 04:51:33;;;;;;;33.15;25.48;;;;;;;7.34;61.46;102011.25;4776643;29;119357;-78
2022/12/04 04:54:03;;;;;;;31.80;23.83;;;;;;;7.38;61.82;102007.34;4782439;29;119898;-79
2022/12/04 04:56:30;;;;;;;34.63;24.80;;;;;;;7.38;61.70;102007.34;4747490;29;119697;-79
2022/12/04 04:58:56;;;;;;;31.42;23.83;;;;;;;7.35;61.03;101993.69;4762127;29;119980;-78
2022/12/04 05:01:25;;;;;;;31.05;24.02;;;;;;;7.42;60.83;102014.72;4784117;29;119353;-79
2022/12/04 05:03:51;;;;;;;31.20;24.35;;;;;;;7.38;61.01;102017.47;4766939;29;121328;-78
2022/12/04 05:06:17;;;;;;;33.13;24.33;;;;;;;7.39;61.11;102019.81;4778343;29;120848;-78
2022/12/04 05:08:43;;;;;;;34.40;25.70;;;;;;;7.38;61.04;102012.00;4758738;29;119392;-79
2022/12/04 05:11:13;;;;;;;33.05;25.08;;;;;;;7.34;60.96;102003.84;4753268;29;120304;-78
2022/12/04 05:13:40;;;;;;;34.92;26.52;;;;;;;7.38;61.70;102012.00;4774199;29;119314;-79
2022/12/04 05:16:09;;;;;;;35.75;27.50;;;;;;;7.40;61.33;102015.13;4753801;29;119150;-78
2022/12/04 05:18:35;;;;;;;35.28;26.23;;;;;;;7.32;61.28;102008.88;4761270;29;120077;-79
2022/12/04 05:21:05;;;;;;;34.22;26.42;;;;;;;7.33;61.45;102015.94;4785964;29;119476;-79
2022/12/04 05:23:31;;;;;;;35.17;26.45;;;;;;;7.29;60.98;102017.88;4779538;29;119132;-79
2022/12/04 05:26:01;;;;;;;36.80;25.58;;;;;;;7.31;61.74;102018.25;4762431;29;120088;-78
2022/12/04 05:28:27;;;;;;;36.60;26.60;;;;;;;7.33;61.62;102024.13;4771524;29;119478;-79
2022/12/04 05:30:55;;;;;;;38.05;27.90;;;;;;;7.38;61.65;102025.66;4763987;29;120143;-79
2022/12/04 05:33:20;;;;;;;35.72;26.73;;;;;;;7.43;61.73;102021.75;4775388;29;119691;-79
2022/12/04 05:35:58;;;;;;;37.50;27.35;;;;;;;7.35;60.86;102016.31;4755182;29;119596;-79
2022/12/04 05:38:23;;;;;;;38.63;27.83;;;;;;;7.38;61.47;102022.94;4750509;29;119226;-78
2022/12/04 05:40:49;;;;;;;36.50;27.38;;;;;;;7.30;61.71;102024.88;4775475;29;119357;-78
2022/12/04 05:43:15;;;;;;;36.47;27.45;;;;;;;7.32;61.78;102033.47;4757625;29;119533;-78
2022/12/04 05:45:40;;;;;;;37.40;26.75;;;;;;;7.32;61.92;102028.00;4762551;29;120819;-78
2022/12/04 05:48:06;;;;;;;35.40;27.33;;;;;;;7.26;61.38;102021.41;4758047;29;119536;-79
2022/12/04 05:50:32;;;;;;;33.63;25.77;;;;;;;7.32;62.23;102027.22;4761082;29;120027;-78
2022/12/04 05:52:57;;;;;;;37.35;27.35;;;;;;;7.33;61.65;102026.84;4774757;29;119961;-78
2022/12/04 05:55:23;;;;;;;39.28;28.27;;;;;;;7.36;62.16;102034.25;4790594;29;119494;-78
2022/12/04 05:57:49;;;;;;;37.60;27.75;;;;;;;7.41;61.76;102032.28;4768661;29;119824;-79
2022/12/04 06:00:15;;;;;;;37.65;28.60;;;;;;;7.45;62.52;102027.59;4779018;29;119443;-78
2022/12/04 06:02:43;;;;;;;38.55;28.52;;;;;;;7.50;62.36;102029.91;4775503;29;119702;-78
2022/12/04 06:05:09;;;;;;;41.15;28.30;;;;;;;7.56;62.55;102039.22;4776753;29;120543;-78
2022/12/04 06:07:35;;;;;;;37.30;27.58;;;;;;;7.57;62.59;102033.41;4782598;29;119073;-79
2022/12/04 06:10:00;;;;;;;36.40;27.50;;;;;;;7.62;62.05;102040.41;4760015;29;122177;-79
2022/12/04 06:12:26;;;;;;;36.30;27.65;;;;;;;7.59;61.87;102030.25;4762178;29;119571;-78
2022/12/04 06:14:52;;;;;;;39.25;27.35;;;;;;;7.57;62.56;102027.94;4747631;29;119334;-79
2022/12/04 06:17:17;;;;;;;35.90;26.55;;;;;;;7.63;62.11;102037.25;4762607;29;120615;-78
2022/12/04 06:19:43;;;;;;;35.33;25.55;;;;;;;7.57;62.00;102029.84;4747312;29;119811;-78
2022/12/04 06:22:08;;;;;;;32.33;25.00;;;;;;;7.67;62.00;102039.97;4753302;29;119768;-79
2022/12/04 06:24:34;;;;;;;31.88;24.88;;;;;;;7.60;62.15;102037.28;4781196;29;120402;-79
2022/12/04 06:27:00;;;;;;;32.15;25.23;;;;;;;7.68;62.15;102041.53;4770215;29;119783;-79
2022/12/04 06:29:26;;;;;;;33.80;25.48;;;;;;;7.70;62.24;102047.38;4784731;29;119532;-78
2022/12/04 06:31:52;;;;;;;32.30;24.35;;;;;;;7.72;61.87;102046.97;4772152;29;119504;-78
2022/12/04 06:34:18;;;;;;;32.78;23.73;;;;;;;7.70;62.02;102045.41;4743030;29;119706;-78
2022/12/04 06:36:43;;;;;;;31.70;23.45;;;;;;;7.68;62.66;102047.78;4778008;29;119160;-77
2022/12/04 06:39:09;;;;;;;31.75;23.25;;;;;;;7.69;62.25;102048.53;4761623;29;119393;-78
2022/12/04 06:41:34;;;;;;;29.63;21.92;;;;;;;7.73;62.78;102052.03;4777449;29;119625;-79
2022/12/04 06:44:00;;;;;;;30.10;22.35;;;;;;;7.65;62.01;102053.25;4742428;29;119734;-78
2022/12/04 06:46:30;;;;;;;27.40;21.00;;;;;;;7.67;62.33;102062.59;4759903;29;119616;-78
2022/12/04 06:48:57;;;;;;;25.10;19.80;;;;;;;7.69;61.76;102059.47;4756227;29;119268;-78
2022/12/04 06:51:29;;;;;;;26.58;20.58;;;;;;;7.70;61.72;102056.34;4749382;29;119503;-78
2022/12/04 06:53:55;;;;;;;26.25;20.80;;;;;;;7.73;61.89;102057.50;4758211;29;119449;-79
2022/12/04 06:56:24;;;;;;;26.00;20.15;;;;;;;7.75;61.74;102063.34;4745969;29;122576;-79
2022/12/04 06:58:55;;;;;;;29.92;21.77;;;;;;;7.75;62.11;102057.88;4757965;29;119888;-78
2022/12/04 07:01:23;;;;;;;26.88;20.77;;;;;;;7.77;62.21;102052.78;4773252;29;119602;-78
2022/12/04 07:03:49;;;;;;;28.05;21.60;;;;;;;7.71;62.12;102035.28;4770795;29;120463;-78
2022/12/04 07:06:26;;;;;;;26.48;20.98;;;;;;;7.77;62.03;102058.25;4771323;29;119921;-78
2022/12/04 07:08:57;;;;;;;27.15;21.30;;;;;;;7.78;61.83;102057.09;4771260;29;119628;-78
2022/12/04 07:11:23;;;;;;;26.75;21.02;;;;;;;7.73;62.03;102051.25;4777344;29;120059;-79
2022/12/04 07:13:49;;;;;;;28.10;21.98;;;;;;;7.76;62.00;102045.00;4768648;29;120116;-79
2022/12/04 07:16:18;;;;;;;26.92;20.70;;;;;;;7.75;62.14;102046.94;4776772;29;119391;-79
2022/12/04 07:18:44;;;;;;;27.55;21.48;;;;;;;7.77;62.47;102043.81;4769766;29;119847;-80
2022/12/04 07:21:13;;;;;;;26.45;20.63;;;;;;;7.80;62.57;102052.00;4723205;29;119753;-79
2022/12/04 07:23:39;;;;;;;26.35;20.00;;;;;;;7.79;62.51;102055.91;4756675;29;121543;-78
2022/12/04 07:26:11;;;;;;;27.38;20.23;;;;;;;7.82;62.49;102052.41;4755604;29;119890;-79
2022/12/04 07:28:37;;;;;;;24.25;19.20;;;;;;;7.84;62.72;102058.25;4774068;29;120832;-79
2022/12/04 07:31:07;;;;;;;26.75;19.67;;;;;;;7.87;62.69;102067.59;4740342;29;121189;-78
2022/12/04 07:33:33;;;;;;;24.60;19.75;;;;;;;7.89;62.91;102063.28;4757712;29;119817;-79
2022/12/04 07:36:01;;;;;;;25.88;20.27;;;;;;;7.94;62.51;102059.34;4740844;29;120061;-78
2022/12/04 07:38:28;;;;;;;27.23;20.40;;;;;;;7.96;62.47;102068.72;4775188;29;119772;-78
2022/12/04 07:40:58;;;;;;;26.13;19.88;;;;;;;8.00;62.84;102066.72;4768629;29;119442;-78
2022/12/04 07:43:25;;;;;;;27.75;20.52;;;;;;;8.01;62.71;102068.28;4770407;29;119276;-79
2022/12/04 07:45:50;;;;;;;27.90;20.92;;;;;;;7.97;62.56;102074.94;4772858;29;120284;-79
2022/12/04 07:48:16;;;;;;;27.65;20.90;;;;;;;7.95;62.82;102069.09;4772852;29;119810;-79
2022/12/04 07:50:42;;;;;;;27.95;21.88;;;;;;;7.85;63.08;102067.22;4770297;29;121150;-79
2022/12/04 07:53:08;;;;;;;28.45;21.67;;;;;;;7.92;63.07;102067.19;4771883;29;120594;-78
2022/12/04 07:55:34;;;;;;;26.58;21.30;;;;;;;7.92;63.20;102064.44;4760828;29;119718;-78
2022/12/04 07:57:59;;;;;;;26.95;20.58;;;;;;;7.94;63.21;102065.59;4773745;29;120339;-78
2022/12/04 08:00:25;;;;;;;30.15;22.60;;;;;;;7.95;63.22;102064.41;4774488;29;119647;-78
2022/12/04 08:02:51;;;;;;;27.20;21.50;;;;;;;7.94;63.29;102060.13;4753962;29;121158;-78
2022/12/04 08:05:17;;;;;;;28.75;22.33;;;;;;;7.96;63.41;102065.97;4771794;29;119365;-78
2022/12/04 08:07:42;;;;;;;28.50;22.20;;;;;;;7.96;63.33;102063.25;4756329;29;120308;-79
2022/12/04 08:10:09;;;;;;;30.13;22.52;;;;;;;7.94;63.76;102071.06;4741867;29;121942;-78
2022/12/04 08:12:34;;;;;;;31.45;23.20;;;;;;;7.86;63.90;102068.78;4755635;29;120075;-78
2022/12/04 08:15:00;;;;;;;28.88;22.98;;;;;;;7.85;63.94;102068.00;4754959;29;121960;-79
2022/12/04 08:17:26;;;;;;;31.23;23.70;;;;;;;7.89;64.19;102071.50;4760280;29;120568;-79
2022/12/04 08:19:53;;;;;;;33.20;24.17;;;;;;;7.92;63.88;102070.69;4769229;29;119542;-79
2022/12/04 08:22:18;;;;;;;32.30;24.63;;;;;;;7.95;63.85;102069.09;4755434;29;120237;-78
2022/12/04 08:24:44;;;;;;;31.58;25.02;;;;;;;7.98;64.45;102069.09;4744513;29;120044;-79
2022/12/04 08:27:10;;;;;;;32.13;24.05;;;;;;;8.08;64.82;102072.19;4757407;29;119475;-79
2022/12/04 08:29:36;;;;;;;35.13;26.80;;;;;;;8.10;64.11;102067.88;4741048;29;121121;-78
2022/12/04 08:32:02;;;;;;;36.28;25.88;;;;;;;8.13;63.94;102069.03;4758210;29;119646;-79
2022/12/04 08:34:27;;;;;;;35.90;25.73;;;;;;;8.17;63.12;102067.03;4754889;29;122159;-78
2022/12/04 08:36:53;;;;;;;37.95;26.83;;;;;;;8.10;63.84;102058.88;4771472;29;119868;-79
2022/12/04 08:39:19;;;;;;;38.85;28.70;;;;;;;8.19;63.53;102070.16;4758206;29;119828;-80
2022/12/04 08:41:44;;;;;;;37.15;27.70;;;;;;;8.21;63.16;102067.78;4773157;29;119745;-79
2022/12/04 08:44:10;;;;;;;39.38;28.75;;;;;;;8.25;63.19;102068.53;4756328;29;119817;-78
2022/12/04 08:46:37;;;;;;;41.25;27.58;;;;;;;8.25;63.29;102074.78;4756706;29;119776;-78
2022/12/04 08:49:04;;;;;;;38.10;27.98;;;;;;;8.24;63.36;102073.22;4753829;29;119563;-78
2022/12/04 08:51:32;;;;;;;35.00;26.15;;;;;;;8.19;63.19;102072.88;4756445;29;119444;-78
2022/12/04 08:54:01;;;;;;;34.25;26.58;;;;;;;8.14;63.68;102073.31;4753497;29;119623;-80
2022/12/04 08:56:28;;;;;;;33.83;25.98;;;;;;;8.09;63.65;102076.47;4769634;29;120301;-79
2022/12/04 08:58:55;;;;;;;39.33;28.15;;;;;;;8.05;64.47;102081.19;4771750;29;119871;-79
2022/12/04 09:01:21;;;;;;;35.33;27.17;;;;;;;8.04;64.52;102074.13;4771609;29;119994;-78
2022/12/04 09:03:50;;;;;;;33.78;26.17;;;;;;;7.99;64.13;102067.91;4769040;29;121757;-79
2022/12/04 09:06:16;;;;;;;34.40;26.33;;;;;;;7.99;64.42;102078.06;4775320;29;120974;-79
2022/12/04 09:08:42;;;;;;;33.92;25.88;;;;;;;8.03;64.75;102078.81;4740850;29;121804;-78
2022/12/04 09:11:07;;;;;;;36.08;26.40;;;;;;;8.09;65.12;102090.13;4760897;29;120536;-79
2022/12/04 09:13:34;;;;;;;34.35;26.48;;;;;;;8.14;64.90;102087.75;4757880;29;119424;-78
2022/12/04 09:16:04;;;;;;;33.88;25.50;;;;;;;8.19;64.74;102090.06;4771415;29;119936;-79
2022/12/04 09:18:30;;;;;;;33.55;25.83;;;;;;;8.17;64.98;102086.94;4745626;29;119835;-79
2022/12/04 09:20:57;;;;;;;32.83;25.60;;;;;;;8.22;64.88;102102.16;4769621;29;120808;-79
2022/12/04 09:23:24;;;;;;;32.90;25.48;;;;;;;8.07;64.42;102087.78;4768677;29;121620;-78
2022/12/04 09:25:49;;;;;;;34.42;26.42;;;;;;;8.14;64.55;102100.63;4771333;29;121520;-78
2022/12/04 09:28:15;;;;;;;32.13;24.13;;;;;;;8.14;64.65;102095.19;4769305;29;120482;-79
2022/12/04 09:30:41;;;;;;;31.23;23.45;;;;;;;8.14;65.00;102092.44;4756642;29;120046;-78
2022/12/04 09:33:07;;;;;;;29.92;22.45;;;;;;;8.20;65.01;102096.31;4771559;29;119857;-79
2022/12/04 09:35:33;;;;;;;30.38;23.85;;;;;;;8.26;64.39;102097.44;4769099;29;123407;-78
2022/12/04 09:37:59;;;;;;;26.90;21.38;;;;;;;8.26;65.30;102094.69;4767434;29;121256;-79
2022/12/04 09:40:27;;;;;;;29.33;22.65;;;;;;;8.27;64.69;102088.06;4758088;29;120553;-78
2022/12/04 09:43:18;;;;;;;25.50;20.73;;;;;;;8.29;64.47;102099.41;4779599;29;119645;-79
2022/12/04 09:45:52;;;;;;;26.60;21.23;;;;;;;8.31;64.18;102091.56;4758404;29;119908;-78
2022/12/04 09:48:20;;;;;;;;;;;;;;;8.33;64.41;102102.88;4755941;29;120814;-79
2022/12/04 09:50:47;;;;;;;26.55;21.73;;;;;;;8.33;64.37;102086.47;4743665;29;119362;-79
2022/12/04 09:53:28;;;;;;;26.48;20.95;;;;;;;8.31;64.40;102086.09;4773997;29;121750;-79
2022/12/04 09:55:57;;;;;;;23.25;18.92;;;;;;;8.37;64.47;102090.00;4758379;29;120031;-79
2022/12/04 09:58:31;;;;;;;22.08;17.25;;;;;;;8.30;64.94;102095.47;4758809;29;119323;-78
2022/12/04 10:00:59;;;;;;;19.80;15.95;;;;;;;8.22;65.36;102086.53;4773680;29;119645;-78
2022/12/04 10:03:27;;;;;;;19.50;15.00;;;;;;;8.16;65.39;102092.81;4772981;29;120049;-78
2022/12/04 10:06:25;;;;;;;20.08;15.65;;;;;;;8.10;65.67;102080.75;4759730;29;119505;-77
2022/12/04 10:09:16;;;;;;;19.30;16.08;;;;;;;8.12;66.59;102086.59;4752283;29;119949;-78
2022/12/04 10:11:56;;;;;;;19.45;15.75;;;;;;;8.16;66.46;102092.81;4734255;29;121261;-79
2022/12/04 10:14:27;;;;;;;23.02;15.90;;;;;;;8.13;66.37;102088.16;4742830;29;119410;-79
2022/12/04 10:17:38;;;;;;;18.92;14.60;;;;;;;8.12;66.21;102086.59;4759639;29;119695;-78
2022/12/04 10:20:26;;;;;;;16.15;13.07;;;;;;;8.08;66.47;102078.41;4738584;29;122549;-78
2022/12/04 10:23:19;;;;;;;15.80;14.10;;;;;;;8.05;66.99;102081.97;5162642;23;121174;-79
2022/12/04 10:25:48;;;;;;;17.63;13.70;;;;;;;8.00;66.48;102074.16;4758632;29;121244;-81
2022/12/04 10:28:35;;;;;;;18.17;14.23;;;;;;;8.07;67.02;102078.81;4769334;29;119615;-80
2022/12/04 10:31:04;;;;;;;15.10;13.35;;;;;;;8.00;66.50;102079.63;4774867;29;119257;-81
2022/12/04 10:34:06;;;;;;;16.85;13.38;;;;;;;7.97;66.42;102074.94;4770762;29;120130;-80
2022/12/04 10:36:33;;;;;;;17.58;14.00;;;;;;;7.97;67.22;102074.94;4736591;29;120274;-81
2022/12/04 10:39:08;;;;;;;13.93;12.35;;;;;;;7.98;67.02;102074.56;4771873;29;120371;-80
2022/12/04 10:41:39;;;;;;;16.50;12.80;;;;;;;8.01;67.24;102071.03;4757022;29;119545;-81
2022/12/04 10:44:05;;;;;;;14.48;11.48;;;;;;;8.01;67.14;102068.28;4771143;29;119387;-81
2022/12/04 10:46:33;;;;;;;14.00;11.50;;;;;;;7.94;66.66;102073.78;4826898;23;119862;-79
2022/12/04 10:49:10;;;;;;;14.77;12.00;;;;;;;7.98;66.83;102068.31;4774584;29;119826;-79
2022/12/04 10:51:42;;;;;;;13.65;10.70;;;;;;;7.97;66.53;102070.25;4745072;29;119913;-81
2022/12/04 10:54:31;;;;;;;11.93;10.73;;;;;;;7.93;66.69;102069.50;4778313;29;119864;-82
2022/12/04 10:57:00;;;;;;;13.60;11.68;;;;;;;7.93;66.60;102057.81;4771238;29;119823;-82
2022/12/04 10:59:27;;;;;;;12.13;10.88;;;;;;;7.98;67.04;102046.44;4728610;29;120530;-81
2022/12/04 11:02:18;;;;;;;12.68;10.75;;;;;;;8.09;66.97;102051.88;4754826;29;119646;-81
2022/12/04 11:05:00;;;;;;;13.05;11.00;;;;;;;8.16;66.60;102060.03;4761707;29;120024;-81
2022/12/04 11:07:34;;;;;;;11.10;9.90;;;;;;;8.14;66.18;102059.66;4775790;29;119752;-81
2022/12/04 11:10:02;;;;;;;;;;;;;;;8.11;66.41;102068.66;4774707;29;119422;-79
2022/12/04 11:12:29;;;;;;;11.25;9.40;;;;;;;8.09;66.03;102054.59;4775660;29;119838;-81
2022/12/04 11:15:05;;;;;;;10.73;9.27;;;;;;;8.08;66.08;102053.81;4768093;29;119919;-81
2022/12/04 11:17:31;;;;;;;12.23;9.52;;;;;;;8.10;65.95;102047.97;4779526;29;119695;-81
2022/12/04 11:20:14;;;;;;;11.07;8.50;;;;;;;8.18;66.48;102044.00;4770030;29;120205;-81
2022/12/04 11:22:51;;;;;;;10.55;8.32;;;;;;;8.20;66.29;102041.63;4766157;29;119415;-81
2022/12/04 11:25:19;;;;;;;10.57;8.05;;;;;;;8.20;66.03;102039.69;4754625;29;120151;-81
2022/12/04 11:27:58;;;;;;;9.18;7.47;;;;;;;8.22;66.02;102050.22;4768918;29;120769;-81
2022/12/04 11:30:31;;;;;;;8.45;6.70;;;;;;;8.16;65.48;102038.94;4781294;29;119567;-81
2022/12/04 11:32:58;;;;;;;10.93;6.90;;;;;;;8.20;65.65;102041.63;4778086;29;119763;-81
2022/12/04 11:35:27;;;;;;;10.98;7.40;;;;;;;8.20;66.18;102033.44;4750440;29;121971;-81
2022/12/04 11:38:01;;;;;;;8.52;6.78;;;;;;;8.14;65.63;102032.31;4768423;29;119448;-80
2022/12/04 11:40:28;;;;;;;11.30;7.65;;;;;;;8.12;65.57;102031.94;4774610;29;120528;-80